createdAt,value
2019-04-03T00:00:44.740Z,100051.31
2019-04-03T00:03:13.964Z,100049.42
2019-04-03T00:05:43.557Z,100053.55
2019-04-03T00:08:12.825Z,100054.22
2019-04-03T00:10:42.453Z,100048.86
2019-04-03T00:13:11.790Z,100039.30
2019-04-03T00:15:41.044Z,100036.35
2019-04-03T00:18:10.224Z,100037.52
2019-04-03T00:20:39.613Z,100054.66
2019-04-03T00:23:09.094Z,100039.31
2019-04-03T00:25:38.285Z,100032.93
2019-04-03T00:28:07.585Z,100033.74
2019-04-03T00:30:36.955Z,100027.88
2019-04-03T00:33:06.228Z,100023.98
2019-04-03T00:35:35.416Z,100026.75
2019-04-03T00:38:04.755Z,100034.09
2019-04-03T00:40:33.917Z,100034.33
2019-04-03T00:43:03.229Z,100023.71
2019-04-03T00:45:32.607Z,100019.91
2019-04-03T00:48:02.121Z,100010.34
2019-04-03T00:50:31.381Z,100017.55
2019-04-03T00:53:00.850Z,100004.90
2019-04-03T00:55:30.073Z,100010.95
2019-04-03T00:57:59.312Z,100009.34
2019-04-03T01:00:28.581Z,100012.06
2019-04-03T01:02:58.884Z,100003.34
2019-04-03T01:05:29.091Z,99991.31
2019-04-03T01:07:59.916Z,100003.37
2019-04-03T01:10:29.640Z,99989.55
2019-04-03T01:13:00.023Z,99993.20
2019-04-03T01:15:31.588Z,99985.34
2019-04-03T01:18:04.300Z,99995.85
2019-04-03T01:20:32.533Z,99988.82
2019-04-03T01:23:01.777Z,99987.48
2019-04-03T01:25:31.084Z,99980.98
2019-04-03T01:28:00.336Z,99973.17
2019-04-03T01:30:29.583Z,99985.36
2019-04-03T01:32:58.897Z,99985.49
2019-04-03T01:35:28.124Z,99979.70
2019-04-03T01:37:57.487Z,99977.73
2019-04-03T01:40:26.706Z,99975.02
2019-04-03T01:42:55.918Z,99967.58
2019-04-03T01:45:25.886Z,99964.73
2019-04-03T01:47:57.480Z,99949.53
2019-04-03T01:50:28.326Z,99952.69
2019-04-03T01:52:57.813Z,99965.09
2019-04-03T01:55:27.082Z,99959.17
2019-04-03T01:57:56.392Z,99967.48
2019-04-03T02:00:25.834Z,99965.86
2019-04-03T02:02:55.166Z,99948.28
2019-04-03T02:05:24.336Z,99956.35
2019-04-03T02:07:53.513Z,99955.33
2019-04-03T02:10:23.056Z,99951.21
2019-04-03T02:12:52.542Z,99955.65
2019-04-03T02:15:22.295Z,99936.27
2019-04-03T02:17:54.226Z,99938.09
2019-04-03T02:20:22.660Z,99942.20
2019-04-03T02:22:52.083Z,99936.03
2019-04-03T02:25:21.267Z,99935.66
2019-04-03T02:27:50.503Z,99944.20
2019-04-03T02:30:19.886Z,99929.56
2019-04-03T02:32:49.213Z,99927.42
2019-04-03T02:35:18.550Z,99923.61
2019-04-03T02:37:49.793Z,99926.69
2019-04-03T02:40:18.936Z,99924.81
2019-04-03T02:42:48.138Z,99936.81
2019-04-03T02:45:17.663Z,99934.08
2019-04-03T02:47:46.936Z,99921.00
2019-04-03T02:50:23.783Z,99929.16
2019-04-03T02:52:56.805Z,99918.41
2019-04-03T02:55:24.250Z,99923.39
2019-04-03T02:57:53.581Z,99919.98
2019-04-03T03:00:22.876Z,99921.33
2019-04-03T03:02:52.147Z,99911.16
2019-04-03T03:05:21.431Z,99911.03
2019-04-03T03:07:51.179Z,99924.00
2019-04-03T03:10:20.682Z,99919.59
2019-04-03T03:12:49.917Z,99914.12
2019-04-03T03:15:19.176Z,99922.19
2019-04-03T03:17:49.178Z,99920.50
2019-04-03T03:20:21.093Z,99913.25
2019-04-03T03:22:51.275Z,99915.63
2019-04-03T03:25:21.039Z,99910.77
2019-04-03T03:27:50.355Z,99915.91
2019-04-03T03:30:37.422Z,99911.50
2019-04-03T03:32:50.791Z,99913.55
2019-04-03T03:35:28.107Z,99907.92
2019-04-03T03:37:51.309Z,99898.59
2019-04-03T03:40:20.605Z,99909.49
2019-04-03T03:42:50.270Z,99898.30
2019-04-03T03:45:20.932Z,99902.11
2019-04-03T03:47:51.349Z,99912.09
2019-04-03T03:50:25.654Z,99908.34
2019-04-03T03:52:54.999Z,99898.62
2019-04-03T03:55:25.526Z,99903.38
2019-04-03T03:57:55.422Z,99898.73
2019-04-03T04:00:24.982Z,99911.94
2019-04-03T04:02:54.465Z,99906.64
2019-04-03T04:05:23.917Z,99905.04
2019-04-03T04:07:53.626Z,99902.59
2019-04-03T04:10:25.173Z,99898.79
2019-04-03T04:12:53.971Z,99911.55
2019-04-03T04:15:23.786Z,99907.64
2019-04-03T04:17:53.568Z,99904.00
2019-04-03T04:20:23.289Z,99908.87
2019-04-03T04:22:52.967Z,99906.19
2019-04-03T04:25:22.558Z,99900.48
2019-04-03T04:27:52.080Z,99904.92
2019-04-03T04:30:21.322Z,99904.34
2019-04-03T04:32:51.230Z,99914.95
2019-04-03T04:35:21.453Z,99911.16
2019-04-03T04:37:51.456Z,99913.30
2019-04-03T04:40:20.699Z,99908.90
2019-04-03T04:42:50.140Z,99917.19
2019-04-03T04:45:19.480Z,99912.52
2019-04-03T04:47:48.722Z,99900.75
2019-04-03T04:50:24.251Z,99902.70
2019-04-03T04:52:53.524Z,99893.63
2019-04-03T04:55:22.707Z,99895.57
2019-04-03T04:57:52.221Z,99898.66
2019-04-03T05:00:21.877Z,99903.28
2019-04-03T05:02:51.494Z,99910.21
2019-04-03T05:05:20.914Z,99913.98
2019-04-03T05:07:50.381Z,99892.34
2019-04-03T05:10:19.835Z,99910.77
2019-04-03T05:12:49.217Z,99900.13
2019-04-03T05:15:23.124Z,99907.68
2019-04-03T05:17:50.639Z,99896.03
2019-04-03T05:20:20.543Z,99911.06
2019-04-03T05:22:49.975Z,99899.10
2019-04-03T05:25:19.364Z,99890.88
2019-04-03T05:27:48.781Z,99892.45
2019-04-03T05:30:29.336Z,99902.14
2019-04-03T05:32:59.604Z,99899.17
2019-04-03T05:35:28.962Z,99895.05
2019-04-03T05:37:58.338Z,99901.41
2019-04-03T05:40:27.665Z,99889.03
2019-04-03T05:42:58.076Z,99882.74
2019-04-03T05:45:28.233Z,99884.97
2019-04-03T05:47:57.719Z,99887.02
2019-04-03T05:50:27.243Z,99886.73
2019-04-03T05:52:56.637Z,99900.61
2019-04-03T05:55:26.105Z,99899.44
2019-04-03T05:57:55.530Z,99890.19
2019-04-03T06:00:24.918Z,99888.41
2019-04-03T06:02:57.070Z,99895.02
2019-04-03T06:05:25.421Z,99888.36
2019-04-03T06:07:54.823Z,99893.95
2019-04-03T06:10:27.298Z,99891.52
2019-04-03T06:12:55.792Z,99882.34
2019-04-03T06:15:25.244Z,99878.28
2019-04-03T06:17:55.743Z,99898.33
2019-04-03T06:20:25.245Z,99878.92
2019-04-03T06:22:55.336Z,99894.17
2019-04-03T06:25:28.916Z,99880.48
2019-04-03T06:27:55.912Z,99918.80
2019-04-03T06:30:25.882Z,99901.82
2019-04-03T06:32:55.499Z,99894.58
2019-04-03T06:35:24.820Z,99891.83
2019-04-03T06:37:54.336Z,99884.98
2019-04-03T06:40:23.682Z,99897.27
2019-04-03T06:42:53.115Z,99874.52
2019-04-03T06:45:25.444Z,99894.45
2019-04-03T06:47:53.659Z,99894.36
2019-04-03T06:50:23.106Z,99892.88
2019-04-03T06:52:53.136Z,99888.67
2019-04-03T06:55:24.898Z,99890.36
2019-04-03T06:57:54.186Z,99889.03
2019-04-03T07:00:23.749Z,99885.44
2019-04-03T07:02:53.161Z,99894.48
2019-04-03T07:05:22.400Z,99902.84
2019-04-03T07:07:51.919Z,99885.08
2019-04-03T07:10:25.721Z,99890.88
2019-04-03T07:12:52.310Z,99886.63
2019-04-03T07:15:23.984Z,99905.75
2019-04-03T07:17:52.901Z,99884.58
2019-04-03T07:20:22.280Z,99886.97
2019-04-03T07:22:51.939Z,99887.50
2019-04-03T07:25:21.416Z,99878.88
2019-04-03T07:27:50.757Z,99877.08
2019-04-03T07:30:21.743Z,99873.31
2019-04-03T07:32:51.273Z,99888.50
2019-04-03T07:35:20.678Z,99887.80
2019-04-03T07:37:51.079Z,99879.26
2019-04-03T07:40:21.458Z,99876.48
2019-04-03T07:42:51.170Z,99875.64
2019-04-03T07:45:20.665Z,99894.44
2019-04-03T07:47:50.046Z,99883.38
2019-04-03T07:50:19.471Z,99879.68
2019-04-03T07:52:49.093Z,99880.37
2019-04-03T07:55:18.524Z,99879.22
2019-04-03T07:57:47.921Z,99891.59
2019-04-03T08:00:17.579Z,99885.05
2019-04-03T08:02:48.726Z,99874.95
2019-04-03T08:05:17.869Z,99878.55
2019-04-03T08:07:47.429Z,99885.70
2019-04-03T08:10:16.842Z,99860.11
2019-04-03T08:12:46.297Z,99894.22
2019-04-03T08:15:15.601Z,99853.02
2019-04-03T08:17:44.950Z,99880.50
2019-04-03T08:20:14.238Z,99902.40
2019-04-03T08:22:43.558Z,99882.48
2019-04-03T08:25:12.964Z,99884.73
2019-04-03T08:27:42.438Z,99879.81
2019-04-03T08:30:11.811Z,99896.27
2019-04-03T08:32:41.321Z,99884.81
2019-04-03T08:35:20.882Z,99885.65
2019-04-03T08:37:42.270Z,99871.39
2019-04-03T08:40:11.810Z,99880.04
2019-04-03T08:42:41.230Z,99885.55
2019-04-03T08:45:11.031Z,99881.56
2019-04-03T08:47:40.504Z,99894.73
2019-04-03T08:50:11.114Z,99888.29
2019-04-03T08:52:40.918Z,99882.58
2019-04-03T08:55:12.913Z,99888.73
2019-04-03T08:57:41.428Z,99897.55
2019-04-03T09:00:10.789Z,99881.02
2019-04-03T09:02:42.467Z,99870.33
2019-04-03T09:05:13.732Z,99859.16
2019-04-03T09:07:42.473Z,99871.43
2019-04-03T09:10:12.382Z,99889.84
2019-04-03T09:12:42.046Z,99878.91
2019-04-03T09:15:11.502Z,99868.83
2019-04-03T09:17:40.894Z,99851.00
2019-04-03T09:20:12.612Z,99850.06
2019-04-03T09:22:41.408Z,99859.34
2019-04-03T09:25:13.233Z,99876.03
2019-04-03T09:27:42.171Z,99850.58
2019-04-03T09:30:15.480Z,99884.02
2019-04-03T09:32:44.583Z,99844.34
2019-04-03T09:35:13.958Z,99838.87
2019-04-03T09:37:45.703Z,99866.09
2019-04-03T09:40:16.548Z,99839.13
2019-04-03T09:42:45.464Z,99868.26
2019-04-03T09:45:15.582Z,99855.52
2019-04-03T09:47:44.980Z,99840.02
2019-04-03T09:50:14.847Z,99831.14
2019-04-03T09:52:48.973Z,99836.48
2019-04-03T09:55:15.704Z,99866.00
2019-04-03T09:57:44.993Z,99851.06
2019-04-03T10:00:14.249Z,99819.52
2019-04-03T10:02:43.665Z,99850.58
2019-04-03T10:05:13.135Z,99808.87
2019-04-03T10:07:42.717Z,99817.69
2019-04-03T10:10:12.172Z,99826.21
2019-04-03T10:12:43.031Z,99820.72
2019-04-03T10:15:12.952Z,99832.00
2019-04-03T10:17:42.413Z,99816.70
2019-04-03T10:20:11.749Z,99787.86
2019-04-03T10:22:41.242Z,99807.66
2019-04-03T10:25:10.566Z,99789.57
2019-04-03T10:27:42.647Z,99805.09
2019-04-03T10:30:12.680Z,99781.73
2019-04-03T10:32:41.956Z,99781.27
2019-04-03T10:35:11.302Z,99776.62
2019-04-03T10:37:41.313Z,99800.59
2019-04-03T10:40:10.815Z,99784.48
2019-04-03T10:43:00.530Z,99778.88
2019-04-03T10:45:30.519Z,99770.13
2019-04-03T10:48:00.062Z,99780.75
2019-04-03T10:50:29.597Z,99769.42
2019-04-03T10:52:59.031Z,99745.41
2019-04-03T10:55:29.451Z,99742.59
2019-04-03T10:58:01.492Z,99755.98
2019-04-03T11:00:30.192Z,99775.69
2019-04-03T11:02:59.452Z,99764.16
2019-04-03T11:05:28.750Z,99764.02
2019-04-03T11:07:58.165Z,99749.78
2019-04-03T15:07:08.624Z,99511.30
2019-04-03T15:09:35.642Z,99518.11
2019-04-03T15:12:06.713Z,99525.25
2019-04-03T15:14:35.995Z,99509.02
2019-04-03T15:17:06.560Z,99511.02
2019-04-03T15:19:35.730Z,99512.00
2019-04-03T15:22:04.966Z,99492.75
2019-04-03T15:24:34.321Z,99508.83
2019-04-03T15:27:03.568Z,99500.52
2019-04-03T15:29:32.964Z,99524.72
2019-04-03T15:32:02.256Z,99514.88
2019-04-03T15:34:31.853Z,99494.84
2019-04-03T15:37:01.208Z,99508.78
2019-04-03T15:39:30.457Z,99482.87
2019-04-03T15:41:59.774Z,99488.23
2019-04-03T15:44:29.031Z,99493.13
2019-04-03T15:47:00.743Z,99522.05
2019-04-03T15:49:29.753Z,99512.13
2019-04-03T15:51:59.157Z,99490.95
2019-04-03T15:54:31.507Z,99487.41
2019-04-03T15:56:59.409Z,99482.89
2019-04-03T15:59:30.770Z,99488.88
2019-04-03T16:02:00.336Z,99485.48
2019-04-03T16:04:29.603Z,99471.57
2019-04-03T16:07:01.149Z,99468.16
2019-04-03T16:09:30.027Z,99463.05
2019-04-03T16:12:00.438Z,99471.85
2019-04-03T16:14:30.893Z,99477.72
2019-04-03T16:17:02.195Z,99467.32
2019-04-03T16:19:31.528Z,99462.58
2019-04-03T16:22:00.699Z,99474.29
2019-04-03T16:24:30.168Z,99486.44
2019-04-03T16:26:59.468Z,99481.67
2019-04-03T16:29:30.257Z,99468.36
2019-04-03T16:31:59.768Z,99486.66
2019-04-03T16:34:29.057Z,99469.41
2019-04-03T16:36:58.718Z,99466.83
2019-04-03T16:39:28.080Z,99472.97
2019-04-03T16:41:57.325Z,99471.62
2019-04-03T16:44:27.459Z,99479.14
2019-04-03T16:46:56.803Z,99459.90
2019-04-03T16:49:28.461Z,99463.86
2019-04-03T16:51:57.015Z,99459.44
2019-04-03T16:54:29.017Z,99467.18
2019-04-03T16:56:57.598Z,99470.06
2019-04-03T16:59:27.047Z,99466.99
2019-04-03T17:01:56.845Z,99465.98
2019-04-03T17:04:28.604Z,99466.83
2019-04-03T17:06:57.373Z,99478.77
2019-04-03T17:09:26.622Z,99469.73
2019-04-03T17:11:55.872Z,99477.91
2019-04-03T17:14:25.716Z,99470.08
2019-04-03T17:16:55.322Z,99481.16
2019-04-03T17:19:24.712Z,99469.05
2019-04-03T17:21:54.984Z,99468.03
2019-04-03T17:24:24.666Z,99485.06
2019-04-03T17:26:58.261Z,99480.45
2019-04-03T17:29:24.943Z,99480.97
2019-04-03T17:31:57.101Z,99480.28
2019-04-03T17:34:25.152Z,99485.39
2019-04-03T17:36:54.642Z,99486.38
2019-04-03T17:39:24.023Z,99483.61
2019-04-03T17:41:53.295Z,99489.73
2019-04-03T17:44:22.544Z,99487.34
2019-04-03T17:46:51.835Z,99486.31
2019-04-03T17:49:21.080Z,99480.81
2019-04-03T17:51:50.456Z,99489.63
2019-04-03T17:54:19.718Z,99490.65
2019-04-03T17:56:48.995Z,99488.13
2019-04-03T17:59:18.991Z,99490.44
2019-04-03T18:01:48.411Z,99488.08
2019-04-03T18:04:20.056Z,99479.41
2019-04-03T18:06:48.651Z,99482.95
2019-04-03T18:09:17.901Z,99487.67
2019-04-03T18:11:47.634Z,99489.47
2019-04-03T18:14:17.117Z,99484.82
2019-04-03T18:16:46.291Z,99487.23
2019-04-03T18:19:37.729Z,99481.89
2019-04-03T18:22:05.955Z,99479.98
2019-04-03T18:24:35.202Z,99491.05
2019-04-03T18:27:06.470Z,99490.74
2019-04-03T18:29:37.337Z,99492.90
2019-04-03T18:32:06.394Z,99495.88
2019-04-03T18:34:35.671Z,99492.47
2019-04-03T18:37:07.323Z,99488.81
2019-04-03T18:39:35.782Z,99491.67
2019-04-03T18:42:05.125Z,99500.57
2019-04-03T18:44:34.396Z,99497.64
2019-04-03T18:47:04.950Z,99494.32
2019-04-03T18:49:34.542Z,99503.80
2019-04-03T18:52:03.869Z,99494.19
2019-04-03T18:54:33.114Z,99494.72
2019-04-03T18:57:02.426Z,99494.38
2019-04-03T18:59:31.764Z,99495.78
2019-04-03T19:02:01.971Z,99488.48
2019-04-03T19:04:32.095Z,99488.53
2019-04-03T19:07:01.407Z,99492.69
2019-04-03T19:09:30.603Z,99492.45
2019-04-03T19:12:08.465Z,99487.64
2019-04-03T19:14:32.092Z,99496.60
2019-04-03T19:17:01.594Z,99490.05
2019-04-03T19:19:30.772Z,99484.70
2019-04-03T19:22:00.085Z,99489.40
2019-04-03T19:24:30.149Z,99492.59
2019-04-03T19:27:02.163Z,99499.22
2019-04-03T19:29:30.532Z,99492.90
2019-04-03T19:31:59.783Z,99489.92
2019-04-03T19:34:29.239Z,99504.72
2019-04-03T19:36:58.427Z,99496.78
2019-04-03T19:39:27.604Z,99492.91
2019-04-03T19:41:56.846Z,99490.07
2019-04-03T19:44:26.228Z,99493.29
2019-04-03T19:46:55.382Z,99487.67
2019-04-03T19:49:27.417Z,99497.39
2019-04-03T19:51:55.632Z,99481.06
2019-04-03T19:54:24.959Z,99494.88
2019-04-03T19:56:56.247Z,99486.06
2019-04-03T19:59:25.259Z,99485.91
2019-04-03T20:01:54.604Z,99484.77
2019-04-03T20:04:26.130Z,99476.69
2019-04-03T20:06:55.745Z,99481.05
2019-04-03T20:09:25.167Z,99479.01
2019-04-03T20:11:54.481Z,99483.88
2019-04-03T20:14:23.837Z,99482.06
2019-04-03T20:16:54.468Z,99480.81
2019-04-03T20:19:24.925Z,99477.87
2019-04-03T20:21:55.101Z,99481.45
2019-04-03T20:24:25.283Z,99479.80
2019-04-03T20:26:54.879Z,99488.48
2019-04-03T20:29:24.072Z,99488.05
2019-04-03T20:31:53.464Z,99491.89
2019-04-03T20:34:22.659Z,99483.91
2019-04-03T20:36:54.804Z,99483.64
2019-04-03T20:39:23.016Z,99482.34
2019-04-03T20:41:52.326Z,99481.14
2019-04-03T20:44:21.571Z,99479.73
2019-04-03T20:46:50.814Z,99482.80
2019-04-03T20:49:20.038Z,99472.91
2019-04-03T20:51:49.278Z,99471.43
2019-04-03T20:54:19.222Z,99470.40
2019-04-03T20:56:57.833Z,99468.33
2019-04-03T20:59:20.563Z,99471.41
2019-04-03T21:01:49.784Z,99468.84
2019-04-03T21:04:19.091Z,99470.31
2019-04-03T21:06:51.531Z,99477.70
2019-04-03T21:09:19.352Z,99474.65
2019-04-03T21:11:48.527Z,99462.16
2019-04-03T21:14:17.834Z,99460.63
2019-04-03T21:16:48.114Z,99464.30
2019-04-03T21:19:17.847Z,99462.49
2019-04-03T21:21:47.123Z,99457.22
2019-04-03T21:24:16.507Z,99456.67
2019-04-03T21:26:45.681Z,99457.02
2019-04-03T21:29:16.865Z,99460.89
2019-04-03T21:31:45.820Z,99457.03
2019-04-03T21:34:15.063Z,99455.13
2019-04-03T21:36:44.276Z,99455.58
2019-04-03T21:39:13.616Z,99452.84
2019-04-03T21:41:42.876Z,99449.19
2019-04-03T21:44:12.130Z,99451.59
2019-04-03T21:46:41.430Z,99445.57
2019-04-03T21:49:10.649Z,99442.60
2019-04-03T21:51:39.895Z,99443.05
2019-04-03T21:54:09.235Z,99436.15
2019-04-03T21:56:38.552Z,99447.23
2019-04-03T21:59:08.996Z,99445.45
2019-04-03T22:01:38.739Z,99447.33
2019-04-03T22:04:08.377Z,99439.45
2019-04-03T22:06:37.680Z,99435.57
2019-04-03T22:09:10.297Z,99441.41
2019-04-03T22:11:40.066Z,99443.86
2019-04-03T22:14:11.010Z,99437.90
2019-04-03T22:16:40.361Z,99441.59
2019-04-03T22:19:09.593Z,99440.27
2019-04-03T22:21:38.755Z,99429.27
2019-04-03T22:24:08.374Z,99434.39
2019-04-03T22:26:38.844Z,99435.52
2019-04-03T22:29:08.582Z,99429.98
2019-04-03T22:31:37.895Z,99433.73
2019-04-03T22:34:07.139Z,99431.88
2019-04-03T22:36:36.403Z,99431.46
2019-04-03T22:39:07.869Z,99421.74
2019-04-03T22:41:36.873Z,99423.41
2019-04-03T22:44:06.186Z,99431.81
2019-04-03T22:46:35.427Z,99424.25
2019-04-03T22:49:04.717Z,99424.42
2019-04-03T22:51:33.961Z,99417.84
2019-04-03T22:54:03.204Z,99421.95
2019-04-03T22:56:32.485Z,99412.59
2019-04-03T22:59:04.534Z,99408.69
2019-04-03T23:01:33.768Z,99415.73
2019-04-03T23:04:05.331Z,99416.50
2019-04-03T23:06:34.209Z,99411.40
2019-04-03T23:09:05.195Z,99408.50
2019-04-03T23:11:34.620Z,99405.56
2019-04-03T23:14:06.903Z,99399.95
2019-04-03T23:16:36.520Z,99393.66
2019-04-03T23:19:05.705Z,99390.53
2019-04-03T23:21:34.926Z,99395.38
2019-04-03T23:24:04.161Z,99399.02
2019-04-03T23:26:33.460Z,99393.09
2019-04-03T23:29:03.076Z,99395.38
2019-04-03T23:31:33.662Z,99390.19
2019-04-03T23:34:02.904Z,99386.06
2019-04-03T23:36:32.324Z,99384.29
2019-04-03T23:39:01.636Z,99388.89
2019-04-03T23:41:30.812Z,99388.75
2019-04-03T23:44:01.085Z,99377.08
2019-04-03T23:46:30.356Z,99382.05
2019-04-03T23:48:59.606Z,99374.67
2019-04-03T23:51:28.794Z,99375.72
2019-04-03T23:53:58.083Z,99373.59
2019-04-03T23:56:27.321Z,99372.11
2019-04-03T23:58:56.560Z,99363.84
